Avondale, Kentucky
Current Conditions -  °F | °C
As of 9:53 AM on Thursday 29 Jan 2015 (Local Time) from KPAH Reporting Station
Few Clouds Few Clouds  
Wind Chill: 54°   Ceiling: Unl
Heat Index: 54°   Visibility: 10mi
Dew Point: 41°   Wind: 18mph
Humidity: 62%   Direction: 300°WNW
Pressure: 30.04"   Gusts: 23mph
Location:  37.0331°N, 88.716°W
Report Text: KPAH 291553Z 30016G20KT 10SM FEW028 12/05 A3004 RMK AO2 SLP171 T01220050
Loading
Personal Weather Stations






























Interactive Weather Map New forecast layout! Learn more

10-Day Weather Forecast

Advertisements
Track Severe Weather on mobile